KARM

Wharton Regional Airport

Wharton, Texas, USA
METAR KARM 191835Z AUTO 18003KT 10SM 32/20 A2996 RMK AO2 T03210196
Observed Flight Rules
Sep-19 @ 18:35 UTC (15 minutes ago)
Wind Visibility
180° at 3 knots 10 miles
Temperatures Readings
Current 32°C / 90°F
Dewpoint 20°C / 68°F
Humidity 49%
Altimeter 29.96" Hg
Pressure 1015 hPa
Elevation 31
METAR KARM 191835Z AUTO 18003KT 10SM 32/20 A2996 RMK AO2 T03210196
Observed Flight Rules
Sep-19 @ 18:35 UTC
(15 minutes ago)
Wind Visibility
180° at 3 knots 10 miles
Temperature Dewpoint
32°C / 90°F 20°C / 68°F
Humidity Altimeter Pressure
49% 29.96" Hg 1015 hPa